Latest Coastal Weather Observations for Broome Port

IDW60701

Issued at 8:55 am WST Thursday 24 April 2014 (issued every 10 minutes, with the page automatically refreshed every 10 minutes)

About coastal observations | Map of coastal stations | Coastal observations for WA | Marine services | Other Formats
Station Details ID: 003102 Name: BROOME NTC AWS Lat: -18.00 Lon: 122.22 Height: 0.0 m
Data from the previous 72 hours. | See also: Recent months for locations in Western Australia
Date/Time
WST
Temp

°C
Wind Pressure Rain
since 9am
mm
Weather Cloud Vis
km
Sea
Height
m
Swell
Dir
 
Speed
knots
Gust
knots
hPa Trend Height
m
Period
s
Dir
24/08:30am 25.7 SE 8 10 1010.0 - - - - - - - - -
24/08:00am 25.4 ESE 8 9 1009.6 - - - - - - - - -
24/07:30am 25.8 E 6 7 1009.3 - - - - - - - - -
24/07:00am 27.1 SE 6 7 1009.1 - - - - - - - - -
24/06:30am 26.7 SE 4 5 1009.0 - - - - - - - - -
24/06:00am 26.3 S 6 8 1008.6 - - - - - - - - -
24/05:30am 26.8 SSE 5 6 1008.5 - - - - - - - - -
24/05:00am 26.8 SE 8 10 1008.4 - - - - - - - - -
24/04:30am 27.1 S 8 9 1008.2 - - - - - - - - -
24/04:00am 26.9 S 4 5 1008.1 - - - - - - - - -
24/03:30am 26.5 S 5 6 1008.3 - - - - - - - - -
24/03:00am 26.6 S 5 6 1008.4 - - - - - - - - -
24/02:30am 26.7 S 4 5 1008.6 - - - - - - - - -
24/02:00am 26.9 S 4 5 1008.6 - - - - - - - - -
24/01:30am 26.9 S 7 7 1008.9 - - - - - - - - -
24/01:00am 27.1 S 6 7 1008.9 - - - - - - - - -
24/12:30am 27.3 SSW 3 4 1009.4 - - - - - - - - -
24/12:00am 27.5 SSW 6 8 1009.5 - - - - - - - - -
 
Date/Time
WST
Temp

°C
Wind Pressure Rain
since 9am
mm
Weather Cloud Vis
km
Sea
Height
m
Swell
Dir
 
Speed
knots
Gust
knots
hPa Trend Height
m
Period
s
Dir
23/11:30pm 27.9 S 5 6 1009.8 - - - - - - - - -
23/11:00pm 28.1 SE 3 5 1009.8 - - - - - - - - -
23/10:30pm 28.1 SE 4 5 1009.8 - - - - - - - - -
23/10:00pm 28.1 S 6 8 1009.7 - - - - - - - - -
23/09:30pm 29.1 SW 8 10 1009.6 - - - - - - - - -
23/09:00pm 29.1 WSW 10 12 1009.7 - - - - - - - - -
23/08:30pm 29.2 SW 11 13 1009.8 - - - - - - - - -
23/08:00pm 29.3 SW 11 13 1009.4 - - - - - - - - -
23/07:30pm 29.5 WSW 11 12 1009.2 - - - - - - - - -
23/07:00pm 29.5 WSW 10 12 1008.8 - - - - - - - - -
23/06:30pm 29.6 W 11 13 1008.5 - - - - - - - - -
23/06:00pm 29.7 W 9 12 1008.0 - - - - - - - - -
23/05:30pm 29.9 W 11 13 1007.6 - - - - - - - - -
23/05:00pm 30.4 W 10 12 1007.1 - - - - - - - - -
23/04:30pm 30.8 WNW 10 12 1006.9 - - - - - - - - -
23/04:00pm 31.1 W 6 9 1006.6 - - - - - - - - -
23/03:30pm 31.4 W 5 8 1006.8 - - - - - - - - -
23/03:00pm 32.3 W 4 6 1006.6 - - - - - - - - -
23/02:30pm 33.2 WSW 3 6 1006.8 - - - - - - - - -
23/02:00pm 33.0 SW 4 5 1006.9 - - - - - - - - -
23/01:30pm 33.4 SW 4 5 1007.3 - - - - - - - - -
23/01:00pm 32.8 SW 2 4 1007.6 - - - - - - - - -
23/12:30pm 32.4 CALM 0 2 1008.3 - - - - - - - - -
23/12:00pm 32.2 CALM 0 0 1008.7 - - - - - - - - -
23/11:30am 31.6 CALM 0 0 1009.4 - - - - - - - - -
23/11:00am 31.0 W 1 4 1009.9 - - - - - - - - -
23/10:30am 29.4 W 1 3 1010.5 - - - - - - - - -
23/10:00am 28.7 W 1 4 1010.6 - - - - - - - - -
23/09:30am 27.9 W 1 3 1011.0 - - - - - - - - -
23/09:00am 27.1 NW 1 3 1011.0 - - - - - - - - -
23/08:30am 27.1 NW 1 3 1011.1 - - - - - - - - -
23/08:00am 26.8 WNW 1 3 1010.9 - - - - - - - - -
23/07:30am 25.8 W 1 3 1010.9 - - - - - - - - -
23/07:00am 25.8 WSW 1 4 1010.7 - - - - - - - - -
23/06:30am 27.1 WSW 2 4 1010.6 - - - - - - - - -
23/06:00am 27.0 W 1 3 1010.2 - - - - - - - - -
23/05:30am 26.5 WSW 1 3 1010.1 - - - - - - - - -
23/05:00am 27.4 SW 2 5 1009.7 - - - - - - - - -
23/04:30am 27.7 SW 5 8 1009.8 - - - - - - - - -
23/04:00am 27.9 SW 7 10 1009.6 - - - - - - - - -
23/03:30am 27.3 SSW 4 7 1009.8 - - - - - - - - -
23/03:00am 27.6 SW 6 10 1009.8 - - - - - - - - -
23/02:30am 27.9 SSW 9 11 1010.0 - - - - - - - - -
23/02:00am 27.7 SW 10 12 1009.9 - - - - - - - - -
23/01:30am 28.2 SW 7 8 1010.1 - - - - - - - - -
23/01:00am 28.5 SSW 5 7 1010.4 - - - - - - - - -
23/12:30am 28.4 SW 2 4 1010.8 - - - - - - - - -
23/12:00am 28.0 SSW 5 7 1010.9 - - - - - - - - -
 
Date/Time
WST
Temp

°C
Wind Pressure Rain
since 9am
mm
Weather Cloud Vis
km
Sea
Height
m
Swell
Dir
 
Speed
knots
Gust
knots
hPa Trend Height
m
Period
s
Dir
22/11:30pm 28.9 SW 6 8 1011.0 - - - - - - - - -
22/11:00pm 29.0 SW 7 9 1010.9 - - - - - - - - -
22/10:30pm 29.1 WSW 9 11 1010.9 - - - - - - - - -
22/10:00pm 29.2 SW 9 10 1010.7 - - - - - - - - -
22/09:30pm 29.4 SW 10 13 1010.9 - - - - - - - - -
22/09:00pm 29.4 SW 11 12 1010.7 - - - - - - - - -
22/08:30pm 29.6 SW 11 13 1010.7 - - - - - - - - -
22/08:00pm 29.7 SW 11 14 1010.4 - - - - - - - - -
22/07:30pm 29.7 WSW 11 12 1010.2 - - - - - - - - -
22/07:00pm 29.6 WSW 11 13 1009.7 - - - - - - - - -
22/06:30pm 29.7 WSW 11 12 1009.6 - - - - - - - - -
22/06:00pm 29.6 W 9 11 1009.2 - - - - - - - - -
22/05:30pm 29.6 W 9 11 1008.9 - - - - - - - - -
22/05:00pm 29.9 W 9 12 1008.5 - - - - - - - - -
22/04:30pm 30.1 W 10 12 1008.3 - - - - - - - - -
22/04:00pm 30.1 W 11 13 1008.0 - - - - - - - - -
22/03:30pm 30.3 WNW 11 13 1008.0 - - - - - - - - -
22/03:00pm 30.3 W 11 13 1007.9 - - - - - - - - -
22/02:30pm 30.5 W 10 12 1008.2 - - - - - - - - -
22/02:00pm 30.1 WNW 9 11 1008.4 - - - - - - - - -
22/01:30pm 30.4 WNW 8 9 1008.9 - - - - - - - - -
22/01:00pm 30.2 W 8 9 1009.2 - - - - - - - - -
22/12:30pm 29.9 W 7 9 1009.7 - - - - - - - - -
22/12:00pm 30.4 WSW 6 7 1010.0 - - - - - - - - -
22/11:30am 30.4 WSW 5 6 1010.6 - - - - - - - - -
22/11:00am 29.9 SW 4 5 1011.1 - - - - - - - - -
22/10:30am 29.3 SSW 6 7 1011.8 - - - - - - - - -
22/10:00am 29.1 SSW 7 10 1011.9 - - - - - - - - -
22/09:30am 28.9 SSW 7 9 1012.4 - - - - - - - - -
22/09:00am 27.9 SSW 9 10 1012.4 - - - - - - - - -
22/08:30am 27.7 SSW 7 8 1012.3 - - - - - - - - -
22/08:00am 27.4 SSW 8 9 1011.9 - - - - - - - - -
22/07:30am 26.6 S 9 11 1012.1 - - - - - - - - -
22/07:00am 26.0 S 8 9 1011.7 - - - - - - - - -
22/06:30am 25.6 S 11 14 1011.6 - - - - - - - - -
22/06:00am 28.8 WSW 8 10 1011.1 - - - - - - - - -
22/05:30am 28.2 W 7 8 1011.0 - - - - - - - - -
22/05:00am 28.1 W 7 9 1010.6 - - - - - - - - -
22/04:30am 28.0 W 6 8 1010.5 - - - - - - - - -
22/04:00am 27.9 WNW 5 7 1010.4 - - - - - - - - -
22/03:30am 28.0 WNW 5 6 1010.5 - - - - - - - - -
22/03:00am 27.6 NW 4 5 1010.4 - - - - - - - - -
22/02:30am 27.7 NW 4 5 1010.6 - - - - - - - - -
22/02:00am 27.9 NW 5 6 1010.7 - - - - - - - - -
22/01:30am 27.6 NW 4 5 1011.1 - - - - - - - - -
22/01:00am 27.9 NNW 5 6 1011.3 - - - - - - - - -
22/12:30am 27.4 NNW 3 3 1011.8 - - - - - - - - -
22/12:00am 27.3 N 3 4 1012.0 - - - - - - - - -
 
Date/Time
WST
Temp

°C
Wind Pressure Rain
since 9am
mm
Weather Cloud Vis
km
Sea
Height
m
Swell
Dir
 
Speed
knots
Gust
knots
hPa Trend Height
m
Period
s
Dir
21/11:30pm 27.4 N 3 5 1012.4 - - - - - - - - -
21/11:00pm 28.3 NNW 3 4 1012.1 - - - - - - - - -
21/10:30pm 28.3 NW 5 6 1012.0 - - - - - - - - -
21/10:00pm 28.4 NW 4 4 1012.0 - - - - - - - - -
21/09:30pm 28.7 WNW 6 7 1011.9 - - - - - - - - -
21/09:00pm 28.7 NW 6 7 1011.9 - - - - - - - - -
21/08:30pm 28.8 WNW 4 5 1011.7 - - - - - - - - -
21/08:00pm 29.1 WNW 7 8 1011.3 - - - - - - - - -
21/07:30pm 29.0 WNW 6 9 1011.0 - - - - - - - - -
21/07:00pm 28.8 NW 8 11 1010.5 - - - - - - - - -
21/06:30pm 28.8 NW 9 12 1010.2 - - - - - - - - -
21/06:00pm 29.0 NW 10 13 1009.6 - - - - - - - - -
21/05:30pm 29.3 WNW 9 11 1009.3 - - - - - - - - -
21/05:00pm 29.6 WNW 11 13 1008.9 - - - - - - - - -
21/04:30pm 30.1 WNW 11 13 1008.7 - - - - - - - - -
21/04:00pm 30.4 WNW 9 11 1008.4 - - - - - - - - -
21/03:30pm 31.3 WNW 9 10 1008.4 - - - - - - - - -
21/03:00pm 31.3 WNW 8 10 1008.3 - - - - - - - - -
21/02:30pm 31.0 WNW 9 11 1008.5 - - - - - - - - -
21/02:00pm 31.3 WNW 8 9 1008.4 - - - - - - - - -
21/01:30pm 30.5 WNW 6 7 1008.7 - - - - - - - - -
21/01:00pm 30.2 W 5 6 1008.9 - - - - - - - - -
21/12:30pm 30.5 W 3 4 1009.4 - - - - - - - - -
21/12:00pm 29.7 SW 3 4 1009.6 - - - - - - - - -
21/11:30am 29.2 S 1 3 1010.3 - - - - - - - - -
21/11:00am 29.5 CALM 0 0 1010.5 - - - - - - - - -
21/10:30am 28.1 ESE 1 2 1010.9 - - - - - - - - -
21/10:00am 27.0 ESE 3 4 1011.1 - - - - - - - - -
21/09:30am 26.2 ESE 5 8 1011.5 - - - - - - - - -
21/09:00am 25.6 ESE 8 9 1011.5 - - - - - - - - -

Other Formats:

Comma delimited format used in spreadsheet applications
http://www.bom.gov.au/fwo/IDW60701/IDW60701.95202.axf

JavaScript Object Notation format (JSON) in row-major order
http://www.bom.gov.au/fwo/IDW60701/IDW60701.95202.json